createdAt,value
2023-06-01T00:00:10.780Z,37.90
2023-06-01T00:02:41.470Z,37.90
2023-06-01T00:05:10.246Z,38.00
2023-06-01T00:07:38.910Z,38.80
2023-06-01T00:10:07.928Z,38.90
2023-06-01T00:12:37.611Z,39.30
2023-06-01T00:15:06.770Z,39.90
2023-06-01T00:17:35.786Z,40.20
2023-06-01T00:20:09.042Z,40.60
2023-06-01T00:22:39.803Z,40.90
2023-06-01T00:25:09.987Z,42.10
2023-06-01T00:27:39.705Z,42.00
2023-06-01T00:30:09.299Z,42.60
2023-06-01T00:32:37.753Z,42.80
2023-06-01T00:35:06.851Z,43.30
2023-06-01T00:37:36.426Z,43.20
2023-06-01T00:40:04.923Z,44.00
2023-06-01T00:42:33.378Z,43.80
2023-06-01T00:45:03.047Z,44.30
2023-06-01T00:47:38.319Z,44.80
2023-06-01T00:50:07.412Z,45.00
2023-06-01T00:52:35.906Z,45.10
2023-06-01T00:55:04.482Z,45.80
2023-06-01T00:57:33.492Z,46.50
2023-06-01T01:00:09.581Z,46.40
2023-06-01T01:02:42.772Z,46.50
2023-06-01T01:05:12.560Z,46.60
2023-06-01T01:07:53.807Z,46.80
2023-06-01T01:10:31.477Z,48.50
2023-06-01T01:13:08.734Z,48.20
2023-06-01T01:15:45.940Z,49.60
2023-06-01T01:18:20.556Z,49.30
2023-06-01T01:20:59.398Z,49.20
2023-06-01T01:23:50.295Z,49.70
2023-06-01T01:26:52.945Z,51.90
2023-06-01T01:29:25.212Z,53.10
2023-06-01T01:31:54.601Z,51.90
2023-06-01T01:34:25.495Z,52.70
2023-06-01T01:36:53.999Z,53.20
2023-06-01T01:39:22.333Z,54.80
2023-06-01T01:41:51.014Z,55.30
2023-06-01T01:44:20.188Z,55.30
2023-06-01T01:47:10.488Z,55.70
2023-06-01T01:49:46.294Z,56.70
2023-06-01T01:52:18.189Z,57.60
2023-06-01T01:54:48.758Z,58.10
2023-06-01T01:57:19.061Z,58.80
2023-06-01T01:59:49.316Z,59.00
2023-06-01T02:02:20.149Z,59.10
2023-06-01T02:04:48.511Z,60.30
2023-06-01T02:07:17.179Z,60.80
2023-06-01T02:09:45.781Z,61.40
2023-06-01T02:12:15.436Z,62.30
2023-06-01T02:14:44.208Z,63.50
2023-06-01T02:17:12.522Z,64.70
2023-06-01T02:19:42.235Z,65.80
2023-06-01T02:22:10.564Z,67.30
2023-06-01T02:24:38.904Z,68.30
2023-06-01T02:27:07.939Z,70.20
2023-06-01T02:29:36.403Z,71.00
2023-06-01T02:32:05.251Z,72.50
2023-06-01T02:34:34.151Z,72.80
2023-06-01T02:37:03.922Z,73.30
2023-06-01T02:39:32.283Z,76.10
2023-06-01T02:42:00.585Z,76.00
2023-06-01T02:44:28.945Z,77.00
2023-06-01T02:46:57.456Z,77.10
2023-06-01T02:49:25.836Z,78.70
2023-06-01T02:51:54.436Z,81.40
2023-06-01T02:54:27.292Z,82.20
2023-06-01T02:56:56.474Z,84.70
2023-06-01T02:59:31.989Z,85.60
2023-06-01T03:02:03.946Z,87.10
2023-06-01T03:04:33.555Z,87.10
2023-06-01T03:07:02.537Z,87.90
2023-06-01T03:09:50.967Z,88.50
2023-06-01T03:12:25.949Z,90.00
2023-06-01T03:14:54.347Z,90.50
2023-06-01T03:17:22.905Z,90.80
2023-06-01T03:19:51.242Z,91.70
2023-06-01T03:22:24.668Z,92.00
2023-06-01T03:24:56.066Z,92.20
2023-06-01T03:27:29.753Z,93.30
2023-06-01T03:29:58.109Z,93.30
2023-06-01T03:32:26.608Z,93.60
2023-06-01T03:34:57.706Z,94.20
2023-06-01T03:37:26.873Z,94.80
2023-06-01T03:39:57.321Z,95.10
2023-06-01T03:42:29.560Z,95.50
2023-06-01T03:44:58.161Z,96.20
2023-06-01T03:47:26.508Z,96.60
2023-06-01T03:49:55.751Z,97.00
2023-06-01T03:52:24.101Z,97.40
2023-06-01T03:54:52.943Z,97.80
2023-06-01T03:57:45.945Z,97.90
2023-06-01T04:00:20.910Z,98.00
2023-06-01T04:02:57.925Z,98.10
2023-06-01T04:05:28.096Z,98.30
2023-06-01T04:07:58.103Z,98.70
2023-06-01T04:10:26.724Z,99.30
2023-06-01T04:12:56.516Z,99.80
2023-06-01T04:15:28.148Z,99.90
2023-06-01T04:17:56.562Z,99.90
2023-06-01T04:20:25.984Z,99.90
2023-06-01T04:22:54.393Z,99.90
2023-06-01T04:25:24.481Z,99.90
2023-06-01T04:27:55.738Z,99.90
2023-06-01T04:30:27.159Z,99.90
2023-06-01T04:32:56.683Z,99.90
2023-06-01T04:35:25.136Z,99.90
2023-06-01T04:37:53.832Z,99.90
2023-06-01T04:40:22.630Z,99.90
2023-06-01T04:42:57.006Z,99.90
2023-06-01T04:45:28.112Z,99.90
2023-06-01T04:47:58.912Z,99.90
2023-06-01T04:50:41.829Z,99.90
2023-06-01T04:53:10.170Z,99.90
2023-06-01T04:55:45.222Z,99.90
2023-06-01T04:58:13.663Z,99.90
2023-06-01T05:00:43.575Z,99.90
2023-06-01T05:03:12.191Z,99.90
2023-06-01T05:05:41.416Z,99.90
2023-06-01T05:08:10.722Z,99.90
2023-06-01T05:10:39.900Z,99.90
2023-06-01T05:13:08.341Z,99.90
2023-06-01T05:15:37.726Z,99.90
2023-06-01T05:18:07.826Z,99.90
2023-06-01T05:20:36.739Z,99.90
2023-06-01T05:23:05.273Z,99.90
2023-06-01T05:25:34.564Z,99.90
2023-06-01T05:28:03.065Z,99.90
2023-06-01T05:30:33.027Z,99.90
2023-06-01T05:33:02.215Z,99.90
2023-06-01T05:35:32.144Z,99.90
2023-06-01T05:38:00.937Z,99.90
2023-06-01T05:40:29.340Z,99.90
2023-06-01T05:42:57.812Z,99.90
2023-06-01T05:45:26.114Z,99.90
2023-06-01T05:47:55.003Z,99.90
2023-06-01T05:50:23.488Z,99.90
2023-06-01T05:52:53.519Z,99.90
2023-06-01T05:55:21.868Z,99.90
2023-06-01T05:57:51.422Z,99.90
2023-06-01T06:00:20.952Z,99.90
2023-06-01T06:02:50.974Z,99.90
2023-06-01T06:05:19.469Z,99.90
2023-06-01T06:07:48.124Z,99.90
2023-06-01T06:10:18.034Z,99.90
2023-06-01T06:12:46.768Z,99.90
2023-06-01T06:15:15.508Z,99.90
2023-06-01T06:17:44.559Z,99.90
2023-06-01T06:20:14.119Z,99.90
2023-06-01T06:22:42.432Z,99.90
2023-06-01T06:25:12.855Z,99.90
2023-06-01T06:27:42.802Z,99.90
2023-06-01T06:30:11.727Z,99.50
2023-06-01T06:32:40.198Z,99.00
2023-06-01T06:35:09.158Z,98.70
2023-06-01T06:37:37.612Z,98.40
2023-06-01T06:40:07.770Z,98.30
2023-06-01T06:42:36.897Z,98.00
2023-06-01T06:45:08.179Z,98.00
2023-06-01T06:47:36.629Z,97.50
2023-06-01T06:50:05.241Z,97.30
2023-06-01T06:52:34.131Z,96.90
2023-06-01T06:55:02.450Z,97.10
2023-06-01T06:57:30.862Z,96.90
2023-06-01T06:59:59.449Z,96.40
2023-06-01T07:02:29.188Z,96.70
2023-06-01T07:04:57.517Z,96.70
2023-06-01T07:07:26.293Z,96.60
2023-06-01T07:09:55.353Z,96.40
2023-06-01T07:12:24.130Z,96.50
2023-06-01T07:14:53.706Z,96.30
2023-06-01T07:17:22.263Z,96.00
2023-06-01T07:19:51.902Z,95.80
2023-06-01T07:22:21.916Z,95.50
2023-06-01T07:24:50.091Z,95.60
2023-06-01T07:27:21.925Z,95.50
2023-06-01T07:29:55.562Z,95.30
2023-06-01T07:32:24.083Z,94.90
2023-06-01T07:34:53.985Z,94.70
2023-06-01T07:37:23.090Z,94.50
2023-06-01T07:39:51.902Z,94.40
2023-06-01T07:42:21.121Z,94.30
2023-06-01T07:44:49.542Z,94.20
2023-06-01T07:47:17.764Z,94.10
2023-06-01T07:49:46.010Z,94.40
2023-06-01T07:52:15.713Z,94.20
2023-06-01T07:54:43.903Z,93.90
2023-06-01T07:57:12.139Z,93.20
2023-06-01T07:59:40.473Z,93.30
2023-06-01T08:02:08.734Z,93.50
2023-06-01T08:04:37.046Z,93.10
2023-06-01T08:07:07.619Z,92.80
2023-06-01T08:09:38.592Z,92.60
2023-06-01T08:12:08.241Z,92.80
2023-06-01T08:14:36.744Z,92.30
2023-06-01T08:17:06.927Z,92.40
2023-06-01T08:19:36.478Z,92.00
2023-06-01T08:22:08.455Z,91.60
2023-06-01T08:24:38.561Z,91.30
2023-06-01T08:27:18.863Z,91.30
2023-06-01T08:29:49.364Z,90.80
2023-06-01T08:32:18.805Z,90.70
2023-06-01T08:34:47.923Z,90.90
2023-06-01T08:37:16.406Z,90.50
2023-06-01T08:39:46.126Z,90.60
2023-06-01T08:42:17.855Z,90.30
2023-06-01T08:44:46.363Z,89.50
2023-06-01T08:47:15.450Z,89.10
2023-06-01T08:49:45.144Z,89.70
2023-06-01T08:52:15.156Z,88.70
2023-06-01T08:54:45.174Z,89.30
2023-06-01T08:57:13.910Z,88.00
2023-06-01T08:59:42.163Z,86.90
2023-06-01T09:02:11.750Z,87.20
2023-06-01T09:04:45.518Z,85.60
2023-06-01T09:07:14.329Z,85.00
2023-06-01T09:09:42.992Z,85.00
2023-06-01T09:12:21.621Z,84.30
2023-06-01T09:14:50.553Z,84.60
2023-06-01T09:17:24.313Z,83.80
2023-06-01T09:19:55.276Z,85.00
2023-06-01T09:22:23.912Z,83.90
2023-06-01T09:24:59.836Z,83.60
2023-06-01T09:27:29.578Z,82.50
2023-06-01T09:30:00.402Z,82.30
2023-06-01T09:32:28.776Z,81.00
2023-06-01T09:34:57.208Z,80.70
2023-06-01T09:37:25.455Z,82.20
2023-06-01T09:39:54.040Z,80.90
2023-06-01T09:42:34.669Z,80.00
2023-06-01T09:45:21.698Z,79.00
2023-06-01T09:47:50.179Z,78.70
2023-06-01T09:50:34.026Z,78.00
2023-06-01T09:53:03.069Z,78.90
2023-06-01T09:55:31.321Z,78.60
2023-06-01T09:58:21.701Z,77.80
2023-06-01T10:00:51.500Z,74.90
2023-06-01T10:03:21.604Z,76.50
2023-06-01T10:05:51.412Z,76.70
2023-06-01T10:08:20.558Z,76.00
2023-06-01T10:10:51.277Z,77.40
2023-06-01T10:13:23.576Z,74.20
2023-06-01T10:15:55.957Z,73.50
2023-06-01T10:18:24.251Z,71.40
2023-06-01T10:20:53.781Z,70.50
2023-06-01T10:23:30.101Z,68.40
2023-06-01T10:26:02.405Z,68.00
2023-06-01T10:28:32.960Z,67.70
2023-06-01T10:31:37.069Z,67.50
2023-06-01T10:34:06.491Z,69.40
2023-06-01T10:37:12.555Z,66.60
2023-06-01T10:39:41.250Z,68.40
2023-06-01T10:42:38.874Z,66.90
2023-06-01T10:45:10.902Z,68.50
2023-06-01T10:47:50.243Z,66.80
2023-06-01T10:50:20.626Z,66.30
2023-06-01T10:52:49.364Z,64.40
2023-06-01T10:55:28.478Z,63.20
2023-06-01T10:58:24.529Z,59.70
2023-06-01T11:00:57.767Z,60.50
2023-06-01T11:03:46.919Z,60.50
2023-06-01T11:06:32.620Z,57.50
2023-06-01T11:09:02.702Z,58.30
2023-06-01T11:12:03.995Z,57.70
2023-06-01T11:14:34.617Z,58.40
2023-06-01T11:17:30.780Z,55.90
2023-06-01T11:20:02.450Z,47.40
2023-06-01T11:22:38.302Z,46.90
2023-06-01T11:25:09.802Z,42.50
2023-06-01T11:27:38.674Z,40.20
2023-06-01T11:30:08.303Z,38.90
2023-06-01T11:32:42.678Z,34.80
2023-06-01T11:35:22.116Z,31.90
2023-06-01T11:37:58.134Z,26.40
2023-06-01T11:40:31.843Z,24.30
2023-06-01T11:43:03.307Z,24.00
2023-06-01T11:45:31.910Z,23.30
2023-06-01T11:48:11.983Z,23.10
2023-06-01T11:50:48.870Z,21.90
2023-06-01T11:53:17.361Z,18.90
2023-06-01T11:55:50.965Z,20.00
2023-06-01T11:58:24.061Z,18.50
2023-06-01T12:00:52.905Z,17.20
2023-06-01T12:03:25.341Z,17.10
2023-06-01T12:05:54.255Z,16.10
2023-06-01T12:08:24.872Z,16.60
2023-06-01T12:10:54.817Z,16.90
2023-06-01T12:13:23.721Z,16.80
2023-06-01T12:15:54.426Z,16.00
2023-06-01T12:18:33.037Z,15.10
2023-06-01T12:21:01.907Z,14.20
2023-06-01T12:23:30.695Z,14.90
2023-06-01T12:26:00.604Z,15.50
2023-06-01T12:28:30.525Z,15.10
2023-06-01T12:31:13.855Z,14.80
2023-06-01T12:33:45.242Z,13.30
2023-06-01T12:36:33.138Z,15.30
2023-06-01T12:39:02.599Z,15.50
2023-06-01T12:41:31.161Z,15.40
2023-06-01T12:44:00.451Z,13.70
2023-06-01T12:46:30.126Z,12.20
2023-06-01T12:51:53.371Z,11.50
2023-06-01T12:54:21.675Z,12.00
2023-06-01T12:56:50.504Z,11.30
2023-06-01T12:59:19.065Z,10.90
2023-06-01T13:01:47.806Z,11.90
2023-06-01T13:04:16.930Z,11.00
2023-06-01T13:06:45.744Z,11.00
2023-06-01T13:09:16.601Z,11.60
2023-06-01T13:11:45.007Z,10.60
2023-06-01T13:14:13.301Z,10.00
2023-06-01T13:16:41.872Z,10.00
2023-06-01T13:19:10.370Z,10.30
2023-06-01T13:21:38.671Z,10.20
2023-06-01T13:24:07.789Z,10.90
2023-06-01T13:26:37.521Z,10.60
2023-06-01T13:29:07.504Z,9.90
2023-06-01T13:31:37.047Z,9.80
2023-06-01T13:34:05.956Z,9.60
2023-06-01T13:36:34.691Z,9.60
2023-06-01T13:39:05.558Z,10.20
2023-06-01T13:41:33.875Z,10.50
2023-06-01T13:44:03.921Z,9.70
2023-06-01T13:46:32.215Z,9.20
2023-06-01T13:49:00.558Z,8.80
2023-06-01T13:51:29.325Z,8.20
2023-06-01T13:53:57.830Z,7.60
2023-06-01T13:56:26.225Z,8.80
2023-06-01T13:58:54.450Z,8.10
2023-06-01T14:01:24.236Z,8.30
2023-06-01T14:03:52.752Z,8.40
2023-06-01T14:06:21.485Z,8.30
2023-06-01T14:08:50.099Z,8.20
2023-06-01T14:11:18.396Z,7.90
2023-06-01T14:13:46.668Z,8.70
2023-06-01T14:16:15.351Z,9.10
2023-06-01T14:18:44.935Z,8.00
2023-06-01T14:21:13.141Z,8.00
2023-06-01T14:23:44.236Z,7.90
2023-06-01T14:26:12.757Z,7.40
2023-06-01T14:28:41.265Z,7.30
2023-06-01T14:31:09.550Z,6.80
2023-06-01T14:33:38.432Z,6.30
2023-06-01T14:36:08.266Z,6.40
2023-06-01T14:38:36.464Z,7.00
2023-06-01T14:41:05.180Z,7.40
2023-06-01T14:43:33.747Z,6.70
2023-06-01T14:46:02.331Z,6.30
2023-06-01T14:48:30.704Z,7.00
2023-06-01T14:50:58.951Z,6.90
2023-06-01T14:53:29.439Z,6.80
2023-06-01T14:55:57.733Z,6.40
2023-06-01T14:58:26.122Z,5.60
2023-06-01T15:00:54.549Z,6.20
2023-06-01T15:03:23.018Z,6.50
2023-06-01T15:05:53.137Z,6.70
2023-06-01T15:08:21.991Z,5.80
2023-06-01T15:10:53.792Z,5.50
2023-06-01T15:13:22.407Z,5.40
2023-06-01T15:15:51.044Z,5.50
2023-06-01T15:18:19.294Z,5.90
2023-06-01T15:20:48.027Z,5.70
2023-06-01T15:23:17.509Z,5.30
2023-06-01T15:25:45.952Z,6.20
2023-06-01T15:28:15.552Z,6.10
2023-06-01T15:30:43.752Z,6.50
2023-06-01T15:33:12.100Z,6.10
2023-06-01T15:35:40.347Z,5.70
2023-06-01T15:38:08.697Z,5.30
2023-06-01T15:40:37.267Z,5.60
2023-06-01T15:43:05.601Z,5.50
2023-06-01T15:45:35.465Z,5.40
2023-06-01T15:48:04.016Z,5.90
2023-06-01T15:50:32.427Z,6.20
2023-06-01T15:53:01.937Z,5.90
2023-06-01T15:55:30.327Z,5.60
2023-06-01T15:57:58.703Z,5.70
2023-06-01T16:00:28.786Z,5.80
2023-06-01T16:02:58.949Z,5.10
2023-06-01T16:05:27.974Z,5.20
2023-06-01T16:07:56.685Z,4.90
2023-06-01T16:10:25.699Z,5.00
2023-06-01T16:12:54.319Z,5.20
2023-06-01T16:15:23.533Z,5.10
2023-06-01T16:17:51.959Z,5.00
2023-06-01T16:20:21.880Z,6.10
2023-06-01T16:22:50.199Z,5.60
2023-06-01T16:25:23.885Z,5.30
2023-06-01T16:27:53.462Z,5.20
2023-06-01T16:30:22.750Z,4.70
2023-06-01T16:32:51.257Z,5.00
2023-06-01T16:35:21.212Z,5.20
2023-06-01T16:37:51.475Z,5.10
2023-06-01T16:40:19.850Z,4.70
2023-06-01T16:42:48.369Z,4.80
2023-06-01T16:45:16.706Z,4.80
2023-06-01T16:47:45.363Z,4.30
2023-06-01T16:50:13.908Z,4.50
2023-06-01T16:52:43.493Z,4.60
2023-06-01T16:55:12.360Z,4.40
2023-06-01T16:57:41.768Z,4.60
2023-06-01T17:00:13.250Z,4.70
2023-06-01T17:02:41.755Z,4.70
2023-06-01T17:05:10.781Z,4.70
2023-06-01T17:07:39.580Z,4.90
2023-06-01T17:10:10.225Z,5.40
2023-06-01T17:12:38.491Z,5.40
2023-06-01T17:15:08.999Z,5.10
2023-06-01T17:17:37.917Z,5.20
2023-06-01T17:20:07.751Z,5.00
2023-06-01T17:22:36.242Z,4.60
2023-06-01T17:25:07.856Z,4.90
2023-06-01T17:27:38.846Z,5.30
2023-06-01T17:30:09.079Z,5.20
2023-06-01T17:32:38.036Z,5.00
2023-06-01T17:35:08.315Z,5.00
2023-06-01T17:37:37.105Z,5.00
2023-06-01T17:40:06.702Z,5.00
2023-06-01T17:42:35.434Z,5.10
2023-06-01T17:45:06.287Z,5.40
2023-06-01T17:47:35.059Z,5.60
2023-06-01T17:50:03.799Z,6.00
2023-06-01T17:52:32.579Z,5.50
2023-06-01T17:55:01.415Z,6.00
2023-06-01T17:57:29.722Z,5.90
2023-06-01T17:59:58.194Z,5.70
2023-06-01T18:02:28.276Z,5.80
2023-06-01T18:04:56.704Z,5.80
2023-06-01T18:07:26.507Z,5.90
2023-06-01T18:09:54.879Z,5.80
2023-06-01T18:12:23.380Z,6.10
2023-06-01T18:14:52.098Z,6.30
2023-06-01T18:17:20.602Z,6.70
2023-06-01T18:19:51.319Z,6.90
2023-06-01T18:22:19.807Z,7.10
2023-06-01T18:24:48.247Z,7.50
2023-06-01T18:27:17.302Z,7.50
2023-06-01T18:29:45.744Z,7.70
2023-06-01T18:32:14.730Z,8.10
2023-06-01T18:34:43.253Z,8.10
2023-06-01T18:37:12.992Z,8.30
2023-06-01T18:39:41.213Z,9.00
2023-06-01T18:42:11.422Z,9.30
2023-06-01T18:44:40.402Z,9.40
2023-06-01T18:47:10.500Z,9.80
2023-06-01T18:49:41.796Z,10.20
2023-06-01T18:52:10.083Z,10.80
2023-06-01T18:54:39.928Z,11.00
2023-06-01T18:57:08.627Z,11.30
2023-06-01T18:59:36.955Z,11.50
2023-06-01T19:02:06.070Z,12.00
2023-06-01T19:04:34.650Z,12.50
2023-06-01T19:07:05.835Z,12.80
2023-06-01T19:09:42.151Z,13.10
2023-06-01T19:12:13.870Z,13.60
2023-06-01T19:14:42.816Z,14.10
2023-06-01T19:17:11.392Z,14.70
2023-06-01T19:19:42.188Z,15.60
2023-06-01T19:22:11.359Z,16.00
2023-06-01T19:24:41.475Z,16.60
2023-06-01T19:27:11.064Z,17.00
2023-06-01T19:29:42.368Z,17.50
2023-06-01T19:32:11.068Z,18.00
2023-06-01T19:34:40.179Z,18.40
2023-06-01T19:37:11.506Z,18.90
2023-06-01T19:39:43.252Z,19.20
2023-06-01T19:42:36.511Z,19.60
2023-06-01T19:45:06.096Z,20.10
2023-06-01T19:47:48.732Z,20.30
2023-06-01T19:50:42.431Z,20.70
2023-06-01T19:53:15.176Z,21.00
2023-06-01T19:55:45.701Z,21.20
2023-06-01T19:58:14.137Z,21.60
2023-06-01T20:00:42.636Z,22.00
2023-06-01T20:03:15.112Z,22.30
2023-06-01T20:05:43.577Z,22.50
2023-06-01T20:08:16.664Z,22.70
2023-06-01T20:10:47.114Z,23.00
2023-06-01T20:13:15.638Z,23.40
2023-06-01T20:15:44.439Z,23.50
2023-06-01T20:18:14.671Z,23.60
2023-06-01T20:20:46.127Z,23.90
2023-06-01T20:23:17.827Z,24.00
2023-06-01T20:25:48.503Z,24.20
2023-06-01T20:28:17.070Z,24.30
2023-06-01T20:31:05.477Z,24.40
2023-06-01T20:33:35.194Z,24.70
2023-06-01T20:36:06.334Z,24.80
2023-06-01T20:38:40.824Z,25.10
2023-06-01T20:41:17.722Z,25.30
2023-06-01T20:43:46.503Z,25.60
2023-06-01T20:46:15.877Z,26.30
2023-06-01T20:48:47.722Z,26.00
2023-06-01T20:51:25.631Z,26.50
2023-06-01T20:53:56.150Z,26.60
2023-06-01T20:56:36.826Z,26.90
2023-06-01T20:59:10.953Z,27.80
2023-06-01T21:01:41.660Z,28.70
2023-06-01T21:04:11.915Z,28.70
2023-06-01T21:06:40.694Z,28.90
2023-06-01T21:09:12.038Z,29.40
2023-06-01T21:11:43.752Z,29.50
2023-06-01T21:14:13.273Z,30.00
2023-06-01T21:16:42.202Z,30.00
2023-06-01T21:19:11.896Z,30.10
2023-06-01T21:21:41.291Z,30.10
2023-06-01T21:24:10.441Z,30.30
2023-06-01T21:26:40.365Z,30.20
2023-06-01T21:29:10.850Z,30.00
2023-06-01T21:31:39.861Z,30.20
2023-06-01T21:34:08.961Z,30.40
2023-06-01T21:36:37.516Z,30.40
2023-06-01T21:39:06.281Z,30.60
2023-06-01T21:41:35.159Z,30.80
2023-06-01T21:44:04.201Z,31.10
2023-06-01T21:46:34.124Z,31.20
2023-06-01T21:49:02.792Z,31.40
2023-06-01T21:51:31.292Z,31.40
2023-06-01T21:53:59.798Z,31.30
2023-06-01T21:56:28.241Z,31.30
2023-06-01T21:58:56.807Z,31.20
2023-06-01T22:01:25.815Z,31.50
2023-06-01T22:03:55.716Z,31.40
2023-06-01T22:06:24.233Z,31.20
2023-06-01T22:08:52.699Z,31.10
2023-06-01T22:11:21.840Z,31.00
2023-06-01T22:13:50.428Z,31.10
2023-06-01T22:16:18.845Z,31.00
2023-06-01T22:18:47.278Z,31.20
2023-06-01T22:21:18.144Z,31.20
2023-06-01T22:23:46.672Z,31.30
2023-06-01T22:26:15.316Z,31.20
2023-06-01T22:28:45.803Z,31.20
2023-06-01T22:31:14.518Z,31.30
2023-06-01T22:33:42.904Z,31.40
2023-06-01T22:36:11.316Z,31.30
2023-06-01T22:38:44.904Z,31.40
2023-06-01T22:41:13.344Z,31.50
2023-06-01T22:43:42.316Z,31.60
2023-06-01T22:46:11.052Z,31.60
2023-06-01T22:48:39.679Z,31.70
2023-06-01T22:51:08.299Z,31.60
2023-06-01T22:53:37.136Z,31.60
2023-06-01T22:56:08.580Z,31.90
2023-06-01T22:58:37.773Z,31.80
2023-06-01T23:01:06.854Z,32.10
2023-06-01T23:03:35.675Z,32.30
2023-06-01T23:06:05.181Z,32.20
2023-06-01T23:08:33.880Z,32.50
2023-06-01T23:11:02.713Z,32.70
2023-06-01T23:13:36.761Z,32.60
2023-06-01T23:16:09.245Z,32.90
2023-06-01T23:18:40.540Z,32.80
2023-06-01T23:21:14.038Z,33.00
2023-06-01T23:23:45.563Z,33.10
2023-06-01T23:26:14.270Z,33.20
2023-06-01T23:29:00.690Z,33.10
2023-06-01T23:31:33.984Z,34.10
2023-06-01T23:34:02.870Z,33.50
2023-06-01T23:36:35.099Z,33.70
2023-06-01T23:39:05.547Z,33.90
2023-06-01T23:41:34.378Z,34.00
2023-06-01T23:44:04.782Z,34.10
2023-06-01T23:46:33.805Z,34.40
2023-06-01T23:49:02.499Z,34.50
2023-06-01T23:51:30.942Z,34.40
2023-06-01T23:53:59.242Z,34.60
2023-06-01T23:56:27.867Z,34.70
2023-06-01T23:58:56.323Z,35.00
